Terminal Aerodrome Forecast
Issued by NWS Pocatello, ID

Home | Current Version | Previous Version | Text Only | Print | Product List | Glossary On
Versions: 1 2 3 4 5 6 7 8 9 10 11 12 13 14 15 16 17 18
000
FTUS45 KPIH 231757 CCA
TAFPIH
TAF COR
KPIH 231757Z 2318/2418 24010KT P6SM SCT015 SCT040
      TEMPO 2318/2320 BKN015 BKN040
     FM240000 VRB04KT P6SM FEW030=

USA.gov is the U.S. government's official web portal to all federal, state and local government web resources and services.